Time;durP1;ratioP1;P1;durP2;ratioP2;P2;SDS_P1;SDS_P2;PMS_P1;PMS_P2;Temp;Humidity;BMP_temperature;BMP_pressure;BME280_temperature;BME280_humidity;BME280_pressure;Samples;Min_cycle;Max_cycle;Signal;HPM_P1;HPM_P2
2022/08/22 00:01:04;;;;;;;6.10;5.63;;;;;;;;;;5086453;28;24947;-47
2022/08/22 00:03:51;;;;;;;6.13;5.70;;;;;;;;;;5085076;28;24418;-47
2022/08/22 00:06:21;;;;;;;6.07;5.57;;;;;;;;;;5085611;28;24517;-47
2022/08/22 00:08:46;;;;;;;6.20;5.70;;;;;;;;;;5084014;28;24437;-46
2022/08/22 00:11:31;;;;;;;6.60;6.10;;;;;;;;;;5086143;28;24430;-47
2022/08/22 00:14:20;;;;;;;6.50;6.00;;;;;;;;;;5083275;28;24422;-47
2022/08/22 00:16:59;;;;;;;6.28;5.78;;;;;;;;;;5086448;28;24414;-47
2022/08/22 00:19:30;;;;;;;6.68;6.07;;;;;;;;;;5085692;28;25036;-47
2022/08/22 00:22:10;;;;;;;6.60;6.10;;;;;;;;;;5085673;28;24426;-47
2022/08/22 00:24:50;;;;;;;6.47;5.97;;;;;;;;;;5082840;28;24438;-47
2022/08/22 00:27:22;;;;;;;5.85;5.35;;;;;;;;;;5084905;28;24431;-47
2022/08/22 00:30:01;;;;;;;5.80;5.30;;;;;;;;;;5084846;28;24776;-48
2022/08/22 00:32:31;;;;;;;5.55;5.15;;;;;;;;;;5085140;28;24425;-48
2022/08/22 00:35:21;;;;;;;5.53;5.13;;;;;;;;;;5085494;28;24471;-47
2022/08/22 00:37:55;;;;;;;6.40;5.80;;;;;;;;;;5083572;28;24433;-47
2022/08/22 00:40:35;;;;;;;5.47;5.07;;;;;;;;;;5082908;28;24476;-47
2022/08/22 00:43:28;;;;;;;5.70;5.20;;;;;;;;;;5082979;28;24577;-47
2022/08/22 00:46:12;;;;;;;5.80;5.40;;;;;;;;;;5084448;28;24510;-47
2022/08/22 00:49:01;;;;;;;6.18;5.68;;;;;;;;;;5084207;28;24455;-46
2022/08/22 00:51:30;;;;;;;6.10;5.60;;;;;;;;;;5073639;28;24433;-46
2022/08/22 00:54:04;;;;;;;6.00;5.50;;;;;;;;;;5084556;28;24471;-45
2022/08/22 00:56:48;;;;;;;6.55;5.95;;;;;;;;;;5084396;28;25019;-47
2022/08/22 00:59:32;;;;;;;6.90;6.30;;;;;;;;;;5080878;28;24542;-47
2022/08/22 01:02:22;;;;;;;6.57;6.07;;;;;;;;;;5080282;28;24422;-47
2022/08/22 01:04:47;;;;;;;6.70;6.20;;;;;;;;;;5082727;28;24521;-46
2022/08/22 01:07:32;;;;;;;7.83;7.13;;;;;;;;;;5078516;28;24564;-46
2022/08/22 01:10:09;;;;;;;7.20;6.60;;;;;;;;;;5083205;28;24429;-46
2022/08/22 01:12:51;;;;;;;7.32;6.70;;;;;;;;;;5082568;28;24444;-46
2022/08/22 01:15:21;;;;;;;7.30;6.60;;;;;;;;;;5084347;28;24441;-46
2022/08/22 01:17:57;;;;;;;7.28;6.68;;;;;;;;;;5081499;28;24430;-45
2022/08/22 01:20:28;;;;;;;6.85;6.28;;;;;;;;;;5075223;28;25023;-46
2022/08/22 01:22:53;;;;;;;6.40;5.80;;;;;;;;;;5082328;28;24527;-46
2022/08/22 01:25:32;;;;;;;6.60;6.00;;;;;;;;;;5081894;28;24441;-46
2022/08/22 01:28:10;;;;;;;6.20;5.60;;;;;;;;;;5082697;28;24426;-46
2022/08/22 01:30:35;;;;;;;6.00;5.40;;;;;;;;;;5077547;28;24486;-46
2022/08/22 01:33:19;;;;;;;6.38;5.78;;;;;;;;;;5082595;28;24426;-46
2022/08/22 01:35:44;;;;;;;6.00;5.60;;;;;;;;;;5078930;28;24426;-47
2022/08/22 01:38:24;;;;;;;6.85;6.35;;;;;;;;;;5083065;28;24510;-46
2022/08/22 01:40:58;;;;;;;6.20;5.60;;;;;;;;;;5084536;28;24418;-46
2022/08/22 01:43:47;;;;;;;6.03;5.53;;;;;;;;;;5083900;28;24415;-46
2022/08/22 01:46:18;;;;;;;6.32;5.88;;;;;;;;;;5079650;28;24425;-47
2022/08/22 01:48:47;;;;;;;6.03;5.63;;;;;;;;;;5083202;28;24487;-46
2022/08/22 01:51:24;;;;;;;5.83;5.43;;;;;;;;;;5085941;28;24419;-46
2022/08/22 01:53:59;;;;;;;6.38;5.88;;;;;;;;;;5087775;28;24533;-46
2022/08/22 01:56:30;;;;;;;5.63;5.22;;;;;;;;;;5086066;28;24460;-46
2022/08/22 01:59:00;;;;;;;5.88;5.38;;;;;;;;;;5085954;28;25024;-46
2022/08/22 02:01:25;;;;;;;5.60;5.20;;;;;;;;;;5086098;28;24437;-46
2022/08/22 02:03:50;;;;;;;6.00;5.40;;;;;;;;;;5087227;28;24426;-46
2022/08/22 02:06:20;;;;;;;5.60;5.20;;;;;;;;;;5086116;28;24418;-46
2022/08/22 02:08:49;;;;;;;5.95;5.45;;;;;;;;;;5086864;28;24422;-47
2022/08/22 02:11:30;;;;;;;6.10;5.60;;;;;;;;;;5082987;28;24433;-47
2022/08/22 02:13:55;;;;;;;5.90;5.40;;;;;;;;;;5084666;28;24519;-47
2022/08/22 02:16:43;;;;;;;5.50;5.10;;;;;;;;;;5084190;28;24476;-47
2022/08/22 02:19:08;;;;;;;6.00;5.60;;;;;;;;;;5081758;28;24437;-46
2022/08/22 02:21:46;;;;;;;6.20;5.80;;;;;;;;;;5085778;28;24437;-47
2022/08/22 02:24:28;;;;;;;6.07;5.57;;;;;;;;;;5080972;28;25030;-46
2022/08/22 02:27:09;;;;;;;6.82;6.22;;;;;;;;;;5083840;28;24799;-46
2022/08/22 02:30:09;;;;;;;6.70;6.00;;;;;;;;;;5083193;28;24426;-47
2022/08/22 02:32:35;;;;;;;6.22;5.72;;;;;;;;;;5004458;28;24527;-46
2022/08/22 02:35:04;;;;;;;6.60;6.20;;;;;;;;;;5066733;28;24513;-47
2022/08/22 02:37:34;;;;;;;6.45;5.95;;;;;;;;;;5081180;28;24971;-47
2022/08/22 02:40:11;;;;;;;6.38;5.88;;;;;;;;;;5084919;28;24796;-46
2022/08/22 02:42:51;;;;;;;6.70;6.10;;;;;;;;;;5084126;28;24512;-46
2022/08/22 02:45:37;;;;;;;6.40;5.90;;;;;;;;;;5082573;28;24538;-47
2022/08/22 02:48:25;;;;;;;6.90;6.30;;;;;;;;;;5085854;28;24956;-47
2022/08/22 02:51:00;;;;;;;6.20;5.70;;;;;;;;;;5081815;28;24480;-47
2022/08/22 02:53:28;;;;;;;7.25;6.53;;;;;;;;;;5084550;28;24519;-46
2022/08/22 02:55:53;;;;;;;6.75;6.15;;;;;;;;;;5082373;28;24868;-46
2022/08/22 02:58:28;;;;;;;6.05;5.57;;;;;;;;;;5085771;28;24541;-47
2022/08/22 03:01:02;;;;;;;6.10;5.55;;;;;;;;;;5084198;28;24454;-47
2022/08/22 03:03:30;;;;;;;7.85;6.00;;;;;;;;;;5085486;28;24519;-47
2022/08/22 03:05:57;;;;;;;6.75;6.07;;;;;;;;;;5084999;28;24429;-47
2022/08/22 03:08:24;;;;;;;7.07;6.47;;;;;;;;;;5086361;28;24592;-47
2022/08/22 03:11:09;;;;;;;6.32;5.72;;;;;;;;;;5083496;28;25025;-47
2022/08/22 03:14:13;;;;;;;6.53;5.93;;;;;;;;;;5070287;28;24430;-47
2022/08/22 03:17:03;;;;;;;7.25;6.65;;;;;;;;;;4961437;28;24426;-46
2022/08/22 03:19:46;;;;;;;6.50;5.90;;;;;;;;;;4969203;28;24518;-46
2022/08/22 03:22:15;;;;;;;5.85;5.40;;;;;;;;;;5052237;28;24422;-47
2022/08/22 03:24:47;;;;;;;6.28;5.68;;;;;;;;;;5082186;28;24437;-47
2022/08/22 03:27:18;;;;;;;6.40;5.80;;;;;;;;;;5086190;28;24410;-47
2022/08/22 03:29:49;;;;;;;6.20;5.70;;;;;;;;;;5081827;28;25013;-48
2022/08/22 03:32:17;;;;;;;6.40;5.90;;;;;;;;;;5084203;28;24429;-47
2022/08/22 03:34:53;;;;;;;7.13;6.47;;;;;;;;;;5084011;28;25039;-47
2022/08/22 03:37:51;;;;;;;6.32;5.82;;;;;;;;;;5073450;28;24414;-46
2022/08/22 03:40:22;;;;;;;6.32;5.82;;;;;;;;;;5048834;28;25230;-47
2022/08/22 03:42:56;;;;;;;6.28;5.78;;;;;;;;;;5084880;28;24509;-48
2022/08/22 03:45:40;;;;;;;5.87;5.47;;;;;;;;;;5082161;28;24422;-47
2022/08/22 03:48:11;;;;;;;5.63;5.22;;;;;;;;;;5084761;28;24518;-46
2022/08/22 03:51:03;;;;;;;6.15;5.65;;;;;;;;;;5082121;28;25153;-47
2022/08/22 03:53:33;;;;;;;6.18;5.68;;;;;;;;;;5082317;28;24979;-46
2022/08/22 03:56:10;;;;;;;6.13;5.53;;;;;;;;;;5082891;28;24456;-47
2022/08/22 03:58:41;;;;;;;7.20;6.60;;;;;;;;;;5083869;28;24714;-47
2022/08/22 04:01:32;;;;;;;6.43;5.83;;;;;;;;;;5081959;28;24429;-48
2022/08/22 04:04:12;;;;;;;6.32;5.82;;;;;;;;;;5085046;28;24466;-47
2022/08/22 04:06:40;;;;;;;6.40;5.90;;;;;;;;;;5083657;28;24460;-46
2022/08/22 04:09:24;;;;;;;7.20;6.50;;;;;;;;;;5082512;28;24426;-47
2022/08/22 04:11:49;;;;;;;7.00;6.22;;;;;;;;;;5083351;28;24426;-47
2022/08/22 04:14:22;;;;;;;6.70;6.10;;;;;;;;;;5082067;28;24432;-48
2022/08/22 04:16:48;;;;;;;6.93;6.32;;;;;;;;;;5082374;28;24449;-47
2022/08/22 04:19:33;;;;;;;6.80;6.30;;;;;;;;;;5085631;28;24465;-47
2022/08/22 04:22:10;;;;;;;6.90;6.30;;;;;;;;;;5081499;28;24428;-47
2022/08/22 04:25:01;;;;;;;7.13;6.50;;;;;;;;;;5068932;28;24449;-48
2022/08/22 04:27:39;;;;;;;8.18;7.10;;;;;;;;;;5056675;28;24473;-47
2022/08/22 04:30:07;;;;;;;6.10;5.60;;;;;;;;;;5063067;28;24523;-47
2022/08/22 04:32:35;;;;;;;6.07;5.57;;;;;;;;;;5062136;28;25211;-47
2022/08/22 04:35:06;;;;;;;6.10;5.60;;;;;;;;;;5062916;28;24471;-47
2022/08/22 04:37:35;;;;;;;6.45;5.85;;;;;;;;;;5063907;28;25226;-47
2022/08/22 04:40:03;;;;;;;5.43;5.03;;;;;;;;;;5064884;28;24438;-47
2022/08/22 04:42:35;;;;;;;6.30;5.72;;;;;;;;;;5065938;28;25041;-47
2022/08/22 04:45:10;;;;;;;6.45;5.95;;;;;;;;;;5066014;28;24464;-47
2022/08/22 04:47:42;;;;;;;6.30;5.70;;;;;;;;;;5064169;28;24898;-46
2022/08/22 04:50:13;;;;;;;5.53;5.10;;;;;;;;;;5064547;28;24600;-47
2022/08/22 04:52:47;;;;;;;6.40;6.00;;;;;;;;;;5063619;28;24423;-46
2022/08/22 04:55:31;;;;;;;6.50;6.00;;;;;;;;;;5064907;28;24484;-47
2022/08/22 04:58:15;;;;;;;6.30;5.80;;;;;;;;;;5062819;28;24445;-47
2022/08/22 05:00:58;;;;;;;6.40;5.90;;;;;;;;;;5056439;28;25281;-47
2022/08/22 05:03:25;;;;;;;5.85;5.35;;;;;;;;;;5059415;28;24998;-46
2022/08/22 05:05:52;;;;;;;6.20;5.80;;;;;;;;;;5064217;28;24458;-47
2022/08/22 05:08:20;;;;;;;6.20;5.70;;;;;;;;;;5063953;28;25018;-46
2022/08/22 05:10:46;;;;;;;6.55;5.95;;;;;;;;;;5066006;28;24394;-46
2022/08/22 05:13:18;;;;;;;5.90;5.50;;;;;;;;;;5061771;28;24926;-46
2022/08/22 05:15:46;;;;;;;5.50;5.00;;;;;;;;;;5058259;28;24457;-46
2022/08/22 05:18:18;;;;;;;5.90;5.50;;;;;;;;;;5062693;28;24441;-47
2022/08/22 05:20:46;;;;;;;6.50;5.90;;;;;;;;;;5059112;28;24427;-46
2022/08/22 05:23:15;;;;;;;6.40;5.80;;;;;;;;;;5066191;28;24477;-46
2022/08/22 05:25:41;;;;;;;5.72;5.32;;;;;;;;;;5071017;28;24472;-46
2022/08/22 05:28:10;;;;;;;6.88;6.18;;;;;;;;;;5068114;28;24533;-46
2022/08/22 05:30:36;;;;;;;6.30;5.80;;;;;;;;;;5084799;28;24465;-46
2022/08/22 05:33:04;;;;;;;6.30;5.70;;;;;;;;;;5084246;28;24975;-46
2022/08/22 05:35:38;;;;;;;6.57;5.97;;;;;;;;;;5084248;28;24524;-46
2022/08/22 05:38:05;;;;;;;6.40;5.80;;;;;;;;;;5076350;28;24434;-46
2022/08/22 05:40:32;;;;;;;6.20;5.70;;;;;;;;;;5084887;28;24426;-47
2022/08/22 05:42:57;;;;;;;5.95;5.45;;;;;;;;;;5084016;28;24433;-47
2022/08/22 05:45:23;;;;;;;6.28;5.68;;;;;;;;;;5086820;28;24406;-47
2022/08/22 05:48:06;;;;;;;7.30;5.70;;;;;;;;;;5083900;28;25017;-47
2022/08/22 05:50:36;;;;;;;6.57;5.97;;;;;;;;;;5082958;28;25019;-47
2022/08/22 05:53:14;;;;;;;6.40;5.82;;;;;;;;;;5081031;28;24445;-47
2022/08/22 05:55:46;;;;;;;7.30;6.13;;;;;;;;;;5081512;28;24957;-47
2022/08/22 05:58:26;;;;;;;6.20;5.70;;;;;;;;;;5082661;28;24430;-48
2022/08/22 06:00:58;;;;;;;6.68;6.05;;;;;;;;;;5081318;28;24414;-47
2022/08/22 06:03:23;;;;;;;10.38;6.18;;;;;;;;;;5082514;28;24460;-47
2022/08/22 06:05:52;;;;;;;6.07;5.53;;;;;;;;;;5082638;28;24447;-47
2022/08/22 06:08:22;;;;;;;6.13;5.53;;;;;;;;;;5077471;28;24465;-45
2022/08/22 06:10:51;;;;;;;6.30;5.70;;;;;;;;;;5080009;28;24476;-45
2022/08/22 06:13:19;;;;;;;6.00;5.50;;;;;;;;;;5083221;28;24441;-46
2022/08/22 06:16:04;;;;;;;6.18;5.68;;;;;;;;;;5081543;28;24811;-46
2022/08/22 06:18:30;;;;;;;6.40;5.70;;;;;;;;;;5076188;28;25105;-47
2022/08/22 06:20:58;;;;;;;6.10;5.60;;;;;;;;;;5079556;28;24426;-47
2022/08/22 06:23:26;;;;;;;5.30;4.80;;;;;;;;;;5076243;28;24508;-46
2022/08/22 06:25:53;;;;;;;5.82;5.43;;;;;;;;;;5057479;28;25281;-46
2022/08/22 06:28:20;;;;;;;6.65;6.05;;;;;;;;;;5043371;28;24423;-46
2022/08/22 06:30:47;;;;;;;6.40;5.80;;;;;;;;;;5061110;28;24443;-45
2022/08/22 06:33:15;;;;;;;6.32;5.78;;;;;;;;;;5063504;28;24423;-45
2022/08/22 06:38:32;;;;;;;8.10;6.93;;;;;;;;;;5060158;28;24540;-46
2022/08/22 06:40:59;;;;;;;5.90;5.30;;;;;;;;;;5064520;28;25038;-47
2022/08/22 06:43:24;;;;;;;6.60;6.00;;;;;;;;;;5065827;28;24402;-46
2022/08/22 06:45:51;;;;;;;6.03;5.60;;;;;;;;;;5062772;28;24680;-46
2022/08/22 06:48:22;;;;;;;6.28;5.70;;;;;;;;;;5063304;28;24423;-46
2022/08/22 06:50:49;;;;;;;6.88;6.28;;;;;;;;;;5064422;28;24567;-46
2022/08/22 06:53:20;;;;;;;6.25;5.65;;;;;;;;;;5062307;28;24522;-46
2022/08/22 06:55:51;;;;;;;6.40;5.80;;;;;;;;;;5062161;28;24491;-46
2022/08/22 06:58:19;;;;;;;6.10;5.60;;;;;;;;;;5058501;28;24616;-46
2022/08/22 07:00:46;;;;;;;6.47;5.88;;;;;;;;;;5057073;28;25055;-46
2022/08/22 07:03:15;;;;;;;6.70;6.13;;;;;;;;;;5062850;28;24475;-46
2022/08/22 07:05:41;;;;;;;7.00;6.30;;;;;;;;;;5054256;28;24392;-47
2022/08/22 07:08:08;;;;;;;6.45;5.90;;;;;;;;;;5047670;28;24455;-46
2022/08/22 07:10:33;;;;;;;6.30;5.70;;;;;;;;;;5051410;28;24434;-47
2022/08/22 07:12:59;;;;;;;6.20;5.70;;;;;;;;;;5066415;28;24402;-47
2022/08/22 07:15:33;;;;;;;6.78;6.10;;;;;;;;;;5067511;28;25031;-47
2022/08/22 07:18:00;;;;;;;6.68;6.07;;;;;;;;;;5066856;28;24445;-47
2022/08/22 07:20:27;;;;;;;7.40;6.33;;;;;;;;;;5067577;28;24383;-47
2022/08/22 07:22:56;;;;;;;6.80;6.20;;;;;;;;;;5067889;28;24960;-47
2022/08/22 07:25:23;;;;;;;6.37;5.67;;;;;;;;;;5087627;28;24416;-47
2022/08/22 07:28:12;;;;;;;6.80;6.10;;;;;;;;;;5087487;28;24958;-46
2022/08/22 07:30:52;;;;;;;6.55;6.05;;;;;;;;;;5085549;28;24526;-46
2022/08/22 07:33:32;;;;;;;6.32;5.80;;;;;;;;;;5086612;28;24445;-46
2022/08/22 07:35:58;;;;;;;6.50;5.90;;;;;;;;;;5087934;28;24401;-46
2022/08/22 07:38:23;;;;;;;6.77;6.17;;;;;;;;;;5085229;28;24406;-47
2022/08/22 07:41:00;;;;;;;6.60;5.90;;;;;;;;;;5084884;28;24466;-46
2022/08/22 07:43:32;;;;;;;6.33;5.73;;;;;;;;;;5087216;28;24397;-47
2022/08/22 07:46:07;;;;;;;6.90;6.20;;;;;;;;;;5086724;28;24394;-45
2022/08/22 07:48:35;;;;;;;7.80;7.10;;;;;;;;;;5087133;28;24571;-46
2022/08/22 07:51:10;;;;;;;6.68;5.93;;;;;;;;;;5087175;28;24479;-46
2022/08/22 07:53:35;;;;;;;7.45;6.40;;;;;;;;;;5086806;28;24390;-46
2022/08/22 07:56:02;;;;;;;8.20;6.50;;;;;;;;;;5087294;28;24405;-46
2022/08/22 07:58:29;;;;;;;6.60;6.00;;;;;;;;;;5086332;28;24422;-46
2022/08/22 08:00:55;;;;;;;6.90;6.30;;;;;;;;;;5086922;28;24403;-45
2022/08/22 08:03:21;;;;;;;6.43;5.80;;;;;;;;;;5087028;28;24417;-46
2022/08/22 08:05:47;;;;;;;6.60;5.90;;;;;;;;;;5087181;28;24483;-46
2022/08/22 08:08:21;;;;;;;8.07;6.60;;;;;;;;;;5087152;28;24440;-45
2022/08/22 08:10:47;;;;;;;6.93;6.30;;;;;;;;;;5087128;28;24401;-45
2022/08/22 08:13:17;;;;;;;7.40;6.80;;;;;;;;;;5086780;28;24401;-46
2022/08/22 08:15:44;;;;;;;6.85;5.90;;;;;;;;;;5087024;28;24810;-45
2022/08/22 08:18:12;;;;;;;6.00;5.50;;;;;;;;;;5085361;28;24425;-46
2022/08/22 08:20:38;;;;;;;6.35;5.75;;;;;;;;;;5085740;28;25174;-46
2022/08/22 08:23:05;;;;;;;6.70;6.10;;;;;;;;;;5084722;28;24483;-46
2022/08/22 08:25:32;;;;;;;6.50;5.90;;;;;;;;;;5086984;28;24406;-47
2022/08/22 08:30:44;;;;;;;7.32;5.50;;;;;;;;;;5085110;28;24412;-47
2022/08/22 08:33:11;;;;;;;5.75;5.25;;;;;;;;;;5086376;28;24382;-47
2022/08/22 08:35:39;;;;;;;6.40;5.80;;;;;;;;;;5085208;28;25023;-46
2022/08/22 08:38:12;;;;;;;6.78;6.07;;;;;;;;;;5084169;28;24520;-46
2022/08/22 08:40:40;;;;;;;6.60;6.00;;;;;;;;;;5083462;28;24449;-46
2022/08/22 08:43:27;;;;;;;6.32;5.72;;;;;;;;;;5082863;28;24427;-45
2022/08/22 08:46:01;;;;;;;5.88;5.20;;;;;;;;;;5086645;28;24472;-46
2022/08/22 08:48:37;;;;;;;6.00;5.40;;;;;;;;;;5086303;28;24399;-46
2022/08/22 08:51:13;;;;;;;7.20;6.10;;;;;;;;;;5086549;28;24420;-46
2022/08/22 08:54:02;;;;;;;8.02;5.03;;;;;;;;;;5081527;28;24974;-46
2022/08/22 08:56:33;;;;;;;6.35;5.75;;;;;;;;;;5081588;28;24883;-47
2022/08/22 08:59:07;;;;;;;6.40;5.90;;;;;;;;;;5084682;28;24418;-47
2022/08/22 09:01:41;;;;;;;5.28;4.07;;;;;;;;;;5090256;28;24990;-46
2022/08/22 09:04:28;;;;;;;5.32;4.50;;;;;;;;;;5090148;28;24433;-47
2022/08/22 09:07:12;;;;;;;4.32;3.70;;;;;;;;;;5088597;28;25223;-47
2022/08/22 09:09:56;;;;;;;4.88;4.13;;;;;;;;;;5090012;28;24410;-46
2022/08/22 09:12:23;;;;;;;4.30;3.90;;;;;;;;;;5089901;28;24832;-47
2022/08/22 09:14:58;;;;;;;4.43;3.80;;;;;;;;;;5090091;28;24451;-47
2022/08/22 09:17:30;;;;;;;3.20;2.88;;;;;;;;;;5089935;28;24436;-47
2022/08/22 09:20:06;;;;;;;5.57;3.70;;;;;;;;;;5090044;28;24394;-46
2022/08/22 09:22:50;;;;;;;4.38;3.40;;;;;;;;;;5089275;28;24963;-46
2022/08/22 09:25:32;;;;;;;4.27;3.30;;;;;;;;;;5089410;28;24863;-46
2022/08/22 09:28:16;;;;;;;4.47;4.00;;;;;;;;;;5089736;28;25048;-47
2022/08/22 09:30:44;;;;;;;4.20;3.80;;;;;;;;;;5089740;28;24455;-46
2022/08/22 09:33:13;;;;;;;4.40;4.00;;;;;;;;;;5089723;28;24394;-47
2022/08/22 09:35:48;;;;;;;3.75;3.45;;;;;;;;;;5089383;28;24436;-46
2022/08/22 09:38:23;;;;;;;3.70;3.40;;;;;;;;;;5089819;28;24517;-46
2022/08/22 09:40:48;;;;;;;3.30;3.00;;;;;;;;;;5088346;28;24966;-46
2022/08/22 09:43:18;;;;;;;2.90;2.70;;;;;;;;;;5090019;28;24386;-47
2022/08/22 09:46:01;;;;;;;4.35;3.00;;;;;;;;;;5089400;28;24406;-47
2022/08/22 09:48:36;;;;;;;3.70;3.30;;;;;;;;;;5088160;28;24458;-47
2022/08/22 09:51:06;;;;;;;3.70;3.40;;;;;;;;;;5089244;28;24418;-45
2022/08/22 09:53:50;;;;;;;5.43;3.80;;;;;;;;;;5089516;28;24454;-46
2022/08/22 09:56:20;;;;;;;3.83;3.13;;;;;;;;;;5089644;28;24947;-47
2022/08/22 09:58:48;;;;;;;3.20;3.00;;;;;;;;;;5089010;28;24951;-47
2022/08/22 10:01:16;;;;;;;2.70;2.23;;;;;;;;;;5070179;28;24472;-47
2022/08/22 10:03:44;;;;;;;2.65;1.80;;;;;;;;;;5068984;28;24432;-47
2022/08/22 10:06:17;;;;;;;3.35;2.50;;;;;;;;;;5069007;28;24981;-47
2022/08/22 10:09:02;;;;;;;2.20;2.00;;;;;;;;;;5068028;28;24390;-47
2022/08/22 10:11:42;;;;;;;4.63;2.70;;;;;;;;;;5085967;28;24441;-47
2022/08/22 10:14:10;;;;;;;2.92;2.50;;;;;;;;;;5089008;28;24463;-48
2022/08/22 10:16:53;;;;;;;2.70;2.50;;;;;;;;;;5087421;28;24964;-47
2022/08/22 10:19:24;;;;;;;3.00;2.70;;;;;;;;;;5088762;28;24467;-46
2022/08/22 10:22:04;;;;;;;2.40;2.30;;;;;;;;;;5088884;28;24824;-47
2022/08/22 10:24:35;;;;;;;2.90;2.70;;;;;;;;;;5088835;28;24417;-47
2022/08/22 10:27:03;;;;;;;4.10;3.10;;;;;;;;;;5089362;28;24518;-47
2022/08/22 10:29:50;;;;;;;2.90;2.60;;;;;;;;;;5088846;28;24442;-47
2022/08/22 10:32:37;;;;;;;4.25;2.70;;;;;;;;;;5086975;28;24934;-47
2022/08/22 10:35:18;;;;;;;3.05;2.85;;;;;;;;;;5088095;28;24422;-46
2022/08/22 10:37:55;;;;;;;3.58;3.28;;;;;;;;;;5087176;28;24776;-47
2022/08/22 10:40:30;;;;;;;3.10;2.90;;;;;;;;;;5088474;28;24386;-46
2022/08/22 10:42:58;;;;;;;3.58;3.22;;;;;;;;;;5088419;28;24412;-47
2022/08/22 10:45:26;;;;;;;4.22;3.70;;;;;;;;;;5088430;28;24485;-47
2022/08/22 10:47:52;;;;;;;3.60;3.30;;;;;;;;;;5087180;28;24483;-46
2022/08/22 10:50:21;;;;;;;3.60;3.40;;;;;;;;;;5087279;28;24426;-47
2022/08/22 10:53:28;;;;;;;3.95;3.65;;;;;;;;;;5087442;28;24437;-46
2022/08/22 10:55:44;;;;;;;3.85;3.55;;;;;;;;;;5088242;28;24447;-47
2022/08/22 10:58:14;;;;;;;4.03;3.72;;;;;;;;;;5083642;28;24919;-47
2022/08/22 11:01:00;;;;;;;3.70;3.40;;;;;;;;;;5067547;28;24383;-47
2022/08/22 11:03:44;;;;;;;3.72;3.42;;;;;;;;;;5067448;28;24440;-46
2022/08/22 11:06:13;;;;;;;3.30;3.00;;;;;;;;;;5067832;28;24478;-46
2022/08/22 11:08:38;;;;;;;3.90;3.60;;;;;;;;;;5067227;28;24409;-46
2022/08/22 11:11:17;;;;;;;3.42;3.17;;;;;;;;;;5084741;28;24433;-46
2022/08/22 11:13:48;;;;;;;3.53;3.00;;;;;;;;;;5087771;28;24409;-45
2022/08/22 11:16:32;;;;;;;4.32;3.53;;;;;;;;;;5087874;28;24928;-46
2022/08/22 11:19:25;;;;;;;3.40;3.10;;;;;;;;;;5087115;28;24414;-46
2022/08/22 11:22:09;;;;;;;3.40;3.10;;;;;;;;;;5087007;28;24409;-46
2022/08/22 11:24:40;;;;;;;2.90;2.70;;;;;;;;;;5087549;28;24943;-46
2022/08/22 11:27:13;;;;;;;3.00;2.80;;;;;;;;;;5085766;28;24494;-47
2022/08/22 11:29:38;;;;;;;3.20;2.90;;;;;;;;;;5087407;28;24386;-46
2022/08/22 11:32:10;;;;;;;3.10;2.80;;;;;;;;;;5087905;28;24400;-46
2022/08/22 11:34:43;;;;;;;3.60;3.30;;;;;;;;;;5087463;28;24721;-46
2022/08/22 11:37:21;;;;;;;3.65;3.10;;;;;;;;;;5087410;28;25039;-46
2022/08/22 11:40:05;;;;;;;3.15;2.95;;;;;;;;;;5087541;28;24406;-46
2022/08/22 11:42:39;;;;;;;3.20;3.00;;;;;;;;;;5086601;28;24445;-46
2022/08/22 11:45:05;;;;;;;3.20;2.90;;;;;;;;;;5086422;28;24512;-46
2022/08/22 11:47:35;;;;;;;4.50;3.30;;;;;;;;;;5086978;28;24389;-46
2022/08/22 11:50:14;;;;;;;3.75;3.45;;;;;;;;;;5087550;28;24928;-46
2022/08/22 11:52:54;;;;;;;3.80;3.00;;;;;;;;;;5086770;28;24394;-47
2022/08/22 11:55:22;;;;;;;3.35;3.05;;;;;;;;;;5087265;28;24409;-46
2022/08/22 11:57:49;;;;;;;3.78;3.30;;;;;;;;;;5076603;28;24525;-46
2022/08/22 12:00:20;;;;;;;3.80;3.50;;;;;;;;;;5067109;28;24756;-46
2022/08/22 12:02:53;;;;;;;3.03;2.83;;;;;;;;;;5066834;28;24383;-46
2022/08/22 12:05:21;;;;;;;4.07;3.67;;;;;;;;;;5066936;28;24399;-46
2022/08/22 12:07:52;;;;;;;3.50;3.20;;;;;;;;;;5084455;28;24425;-46
2022/08/22 12:10:26;;;;;;;3.00;2.80;;;;;;;;;;5087081;28;24882;-47
2022/08/22 12:12:54;;;;;;;3.05;2.85;;;;;;;;;;5086695;28;24401;-47
2022/08/22 12:15:51;;;;;;;2.90;2.70;;;;;;;;;;5086119;28;24421;-47
2022/08/22 12:18:19;;;;;;;3.30;3.00;;;;;;;;;;5036929;28;24434;-46
2022/08/22 12:21:04;;;;;;;3.10;2.80;;;;;;;;;;5087220;28;24398;-47
2022/08/22 12:23:47;;;;;;;3.25;3.05;;;;;;;;;;5045169;28;24496;-46
2022/08/22 12:26:29;;;;;;;3.13;2.80;;;;;;;;;;5066710;28;24391;-46
2022/08/22 12:29:05;;;;;;;3.20;3.00;;;;;;;;;;5066613;28;24406;-45
2022/08/22 12:31:38;;;;;;;3.10;2.80;;;;;;;;;;5086673;28;24402;-46
2022/08/22 12:34:16;;;;;;;2.70;2.50;;;;;;;;;;5085195;28;24495;-46
2022/08/22 12:36:52;;;;;;;3.37;2.97;;;;;;;;;;5066877;28;24406;-46
2022/08/22 12:39:28;;;;;;;2.90;2.70;;;;;;;;;;5073912;28;25022;-46
2022/08/22 12:42:04;;;;;;;3.22;2.72;;;;;;;;;;5086789;28;24705;-47
2022/08/22 12:44:52;;;;;;;3.38;3.08;;;;;;;;;;5086804;28;24406;-46
2022/08/22 12:47:24;;;;;;;3.00;2.80;;;;;;;;;;5067018;28;24445;-47
2022/08/22 12:49:55;;;;;;;3.23;2.70;;;;;;;;;;5066547;28;24399;-47
2022/08/22 12:52:26;;;;;;;2.90;2.70;;;;;;;;;;5090398;28;24493;-46
2022/08/22 12:55:10;;;;;;;3.30;3.00;;;;;;;;;;5086497;28;24422;-46
2022/08/22 12:57:42;;;;;;;4.55;3.10;;;;;;;;;;5085178;28;24430;-46
2022/08/22 13:00:08;;;;;;;3.97;3.15;;;;;;;;;;5080581;28;24437;-47
2022/08/22 13:02:34;;;;;;;3.10;2.90;;;;;;;;;;5085337;28;24491;-46
2022/08/22 13:05:16;;;;;;;3.40;2.90;;;;;;;;;;5086406;28;24493;-47
2022/08/22 13:07:42;;;;;;;3.40;3.10;;;;;;;;;;5081824;28;24423;-46
2022/08/22 13:10:13;;;;;;;3.00;2.70;;;;;;;;;;5085216;28;24410;-46
2022/08/22 13:12:42;;;;;;;3.10;2.80;;;;;;;;;;5086189;28;24463;-46
2022/08/22 13:15:19;;;;;;;2.90;2.70;;;;;;;;;;5086449;28;24487;-46
2022/08/22 13:17:45;;;;;;;2.80;2.58;;;;;;;;;;5086692;28;24414;-46
2022/08/22 13:20:18;;;;;;;2.83;2.53;;;;;;;;;;5086579;28;24401;-46
2022/08/22 13:22:43;;;;;;;3.20;2.80;;;;;;;;;;5086311;28;24437;-46
2022/08/22 13:25:20;;;;;;;2.78;2.58;;;;;;;;;;5066399;28;25202;-48
2022/08/22 13:27:47;;;;;;;2.80;2.50;;;;;;;;;;5065932;28;24757;-48
2022/08/22 13:30:26;;;;;;;3.65;2.70;;;;;;;;;;5066125;28;24411;-48
2022/08/22 13:32:53;;;;;;;2.83;2.40;;;;;;;;;;5066120;28;24493;-47
2022/08/22 13:35:33;;;;;;;2.80;2.60;;;;;;;;;;5066562;28;24437;-47
2022/08/22 13:38:10;;;;;;;2.53;2.33;;;;;;;;;;5066070;28;24431;-47
2022/08/22 13:40:37;;;;;;;2.33;2.13;;;;;;;;;;5066255;28;24379;-46
2022/08/22 13:43:02;;;;;;;2.97;2.63;;;;;;;;;;5065090;28;24403;-46
2022/08/22 13:45:28;;;;;;;2.80;2.47;;;;;;;;;;5069655;28;24455;-46
2022/08/22 13:47:55;;;;;;;3.30;2.50;;;;;;;;;;5069672;28;24496;-46
2022/08/22 13:50:22;;;;;;;3.00;2.80;;;;;;;;;;5069793;28;24398;-47
2022/08/22 13:52:52;;;;;;;2.70;2.20;;;;;;;;;;5069685;28;24391;-46
2022/08/22 13:55:29;;;;;;;3.00;2.80;;;;;;;;;;5069662;28;24411;-47
2022/08/22 13:57:59;;;;;;;2.50;2.30;;;;;;;;;;5066423;28;25004;-46
2022/08/22 14:00:48;;;;;;;2.83;2.40;;;;;;;;;;5071061;28;24973;-47
2022/08/22 14:03:16;;;;;;;2.45;2.20;;;;;;;;;;5069534;28;24482;-47
2022/08/22 14:05:45;;;;;;;4.43;2.60;;;;;;;;;;5068460;28;24419;-47
2022/08/22 14:08:18;;;;;;;2.50;2.30;;;;;;;;;;5050151;28;24442;-47
2022/08/22 14:10:46;;;;;;;4.90;2.75;;;;;;;;;;5069015;28;24430;-48
2022/08/22 14:13:29;;;;;;;4.00;3.60;;;;;;;;;;5069162;28;24453;-47
2022/08/22 14:16:02;;;;;;;3.50;3.20;;;;;;;;;;5069202;28;24497;-47
2022/08/22 14:18:34;;;;;;;3.80;3.50;;;;;;;;;;5067477;28;24426;-47
2022/08/22 14:21:18;;;;;;;4.40;4.00;;;;;;;;;;5067067;28;24397;-48
2022/08/22 14:23:44;;;;;;;3.70;3.40;;;;;;;;;;5070487;28;24471;-48
2022/08/22 14:26:20;;;;;;;2.88;2.67;;;;;;;;;;5076502;28;24429;-46
2022/08/22 14:28:46;;;;;;;3.00;2.70;;;;;;;;;;5084316;28;24450;-47
2022/08/22 14:31:13;;;;;;;3.80;3.50;;;;;;;;;;5087887;28;24461;-47
2022/08/22 14:33:53;;;;;;;2.80;2.60;;;;;;;;;;5086159;28;24525;-46
2022/08/22 14:36:20;;;;;;;2.97;2.67;;;;;;;;;;5078147;28;24410;-47
2022/08/22 14:38:56;;;;;;;3.13;2.60;;;;;;;;;;5085092;28;24426;-47
2022/08/22 14:41:25;;;;;;;3.13;2.80;;;;;;;;;;5084666;28;24959;-47
2022/08/22 14:43:53;;;;;;;2.80;2.60;;;;;;;;;;5083554;28;24430;-48
2022/08/22 14:46:22;;;;;;;3.05;2.75;;;;;;;;;;5079102;28;24831;-48
2022/08/22 14:49:05;;;;;;;3.03;2.83;;;;;;;;;;5083386;28;24441;-47
2022/08/22 14:51:31;;;;;;;4.05;3.70;;;;;;;;;;5083295;28;24428;-47
2022/08/22 14:54:09;;;;;;;4.50;3.60;;;;;;;;;;5083867;28;24433;-47
2022/08/22 14:56:35;;;;;;;3.60;3.30;;;;;;;;;;5082763;28;24518;-46
2022/08/22 14:59:03;;;;;;;4.10;3.70;;;;;;;;;;5081425;28;24471;-47
2022/08/22 15:01:29;;;;;;;3.97;3.67;;;;;;;;;;5083991;28;24418;-48
2022/08/22 15:04:03;;;;;;;4.50;4.10;;;;;;;;;;5082649;28;24440;-47
2022/08/22 15:06:30;;;;;;;3.97;3.40;;;;;;;;;;5084198;28;24521;-47
2022/08/22 15:08:56;;;;;;;4.40;3.70;;;;;;;;;;5076470;28;24791;-47
2022/08/22 15:11:26;;;;;;;4.00;3.70;;;;;;;;;;5085338;28;24433;-47
2022/08/22 15:14:07;;;;;;;4.00;3.70;;;;;;;;;;5084290;28;24422;-47
2022/08/22 15:16:43;;;;;;;4.63;4.32;;;;;;;;;;5086843;28;24426;-46
2022/08/22 15:19:20;;;;;;;3.90;3.60;;;;;;;;;;5081841;28;24788;-47
2022/08/22 15:21:46;;;;;;;3.60;3.30;;;;;;;;;;5082769;28;24461;-47
2022/08/22 15:24:12;;;;;;;3.50;3.25;;;;;;;;;;5084496;28;24759;-47
2022/08/22 15:26:38;;;;;;;4.47;3.47;;;;;;;;;;5083799;28;24432;-47